createdAt,value
2023-12-26T00:00:15.607Z,92.22
2023-12-26T00:02:43.878Z,80.50
2023-12-26T00:05:11.994Z,72.93
2023-12-26T00:07:40.768Z,71.00
2023-12-26T00:10:09.025Z,61.75
2023-12-26T00:12:36.987Z,59.53
2023-12-26T00:15:05.425Z,37.80
2023-12-26T00:17:33.580Z,61.40
2023-12-26T00:20:01.809Z,60.08
2023-12-26T00:22:29.921Z,98.13
2023-12-26T00:24:58.012Z,58.10
2023-12-26T00:27:26.118Z,55.08
2023-12-26T00:29:54.266Z,42.13
2023-12-26T00:32:22.377Z,69.05
2023-12-26T00:34:50.531Z,66.80
2023-12-26T00:37:18.517Z,66.35
2023-12-26T00:39:47.361Z,59.75
2023-12-26T00:42:15.456Z,64.90
2023-12-26T00:44:46.025Z,60.97
2023-12-26T00:47:14.189Z,63.13
2023-12-26T00:49:42.710Z,52.63
2023-12-26T00:52:10.991Z,51.60
2023-12-26T00:54:39.440Z,64.85
2023-12-26T00:57:07.477Z,55.78
2023-12-26T00:59:35.768Z,76.47
2023-12-26T01:02:05.050Z,71.93
2023-12-26T01:04:33.121Z,64.53
2023-12-26T01:07:01.050Z,68.93
2023-12-26T01:09:29.982Z,70.47
2023-12-26T01:11:58.184Z,63.88
2023-12-26T01:14:26.165Z,74.68
2023-12-26T01:16:54.243Z,67.97
2023-12-26T01:19:22.401Z,76.65
2023-12-26T01:21:50.504Z,62.35
2023-12-26T01:24:18.534Z,68.97
2023-12-26T01:26:46.634Z,50.20
2023-12-26T01:29:14.698Z,55.30
2023-12-26T01:31:42.679Z,62.88
2023-12-26T01:34:11.123Z,60.20
2023-12-26T01:36:39.525Z,49.88
2023-12-26T01:39:08.145Z,46.35
2023-12-26T01:41:36.905Z,48.70
2023-12-26T01:44:05.143Z,50.13
2023-12-26T01:46:33.214Z,58.40
2023-12-26T01:49:02.348Z,66.60
2023-12-26T01:54:00.880Z,55.25
2023-12-26T01:56:30.809Z,58.83
2023-12-26T01:58:59.273Z,59.88
2023-12-26T02:01:27.331Z,57.38
2023-12-26T02:03:56.456Z,53.65
2023-12-26T02:08:52.775Z,55.70
2023-12-26T02:11:20.880Z,49.15
2023-12-26T02:13:48.973Z,54.13
2023-12-26T02:16:23.171Z,61.72
2023-12-26T02:18:52.327Z,54.00
2023-12-26T02:21:20.422Z,47.15
2023-12-26T02:23:55.177Z,55.30
2023-12-26T02:26:24.801Z,48.92
2023-12-26T02:28:54.737Z,46.67
2023-12-26T02:31:24.066Z,46.15
2023-12-26T02:33:52.557Z,40.95
2023-12-26T02:36:21.906Z,65.22
2023-12-26T02:38:49.931Z,61.70
2023-12-26T02:41:17.959Z,49.40
2023-12-26T02:43:46.002Z,51.47
2023-12-26T02:46:15.146Z,44.42
2023-12-26T02:48:43.187Z,42.70
2023-12-26T02:51:11.334Z,39.75
2023-12-26T02:53:39.444Z,46.50
2023-12-26T02:56:07.644Z,44.40
2023-12-26T02:58:35.650Z,51.47
2023-12-26T03:03:33.180Z,43.53
2023-12-26T03:06:01.498Z,34.60
2023-12-26T03:08:29.473Z,41.53
2023-12-26T03:10:57.431Z,42.85
2023-12-26T03:13:25.601Z,55.90
2023-12-26T03:15:53.614Z,46.22
2023-12-26T03:18:21.776Z,51.63
2023-12-26T03:20:50.027Z,46.13
2023-12-26T03:23:18.055Z,49.45
2023-12-26T03:25:46.091Z,36.55
2023-12-26T03:28:14.174Z,59.47
2023-12-26T03:30:42.087Z,51.95
2023-12-26T03:33:10.274Z,54.33
2023-12-26T03:35:38.419Z,42.65
2023-12-26T03:38:06.844Z,45.80
2023-12-26T03:40:35.150Z,46.47
2023-12-26T03:43:03.178Z,49.42
2023-12-26T03:45:31.208Z,47.75
2023-12-26T03:47:59.445Z,49.33
2023-12-26T03:50:27.688Z,43.13
2023-12-26T03:52:56.224Z,44.45
2023-12-26T03:55:24.297Z,50.83
2023-12-26T03:57:52.296Z,47.28
2023-12-26T04:00:20.270Z,56.10
2023-12-26T04:02:49.062Z,48.00
2023-12-26T04:05:17.815Z,64.00
2023-12-26T04:07:45.801Z,68.50
2023-12-26T04:10:13.970Z,75.75
2023-12-26T04:12:43.080Z,76.00
2023-12-26T04:15:11.298Z,66.00
2023-12-26T04:17:39.544Z,69.93
2023-12-26T04:20:08.688Z,48.55
2023-12-26T04:22:36.662Z,49.72
2023-12-26T04:25:06.543Z,54.17
2023-12-26T04:27:34.471Z,66.55
2023-12-26T04:30:02.534Z,96.07
2023-12-26T04:32:31.529Z,78.43
2023-12-26T04:34:59.549Z,66.00
2023-12-26T04:37:27.868Z,50.88
2023-12-26T04:39:55.858Z,35.50
2023-12-26T04:42:23.864Z,34.65
2023-12-26T04:44:51.830Z,35.35
2023-12-26T04:47:20.623Z,31.55
2023-12-26T04:49:48.598Z,41.30
2023-12-26T04:52:17.443Z,50.65
2023-12-26T04:54:45.665Z,48.00
2023-12-26T04:57:13.651Z,69.35
2023-12-26T04:59:44.057Z,64.50
2023-12-26T05:02:12.199Z,45.28
2023-12-26T05:04:40.546Z,51.15
2023-12-26T05:07:09.638Z,44.97
2023-12-26T05:09:37.981Z,37.42
2023-12-26T05:12:06.380Z,32.85
2023-12-26T05:14:34.618Z,36.03
2023-12-26T05:17:02.584Z,36.03
2023-12-26T05:19:30.635Z,57.78
2023-12-26T05:21:58.810Z,69.30
2023-12-26T05:24:29.561Z,42.25
2023-12-26T05:26:58.718Z,79.00
2023-12-26T05:29:26.663Z,68.90
2023-12-26T05:31:54.763Z,90.50
2023-12-26T05:34:22.957Z,139.90
2023-12-26T05:36:51.005Z,121.68
2023-12-26T05:39:19.447Z,140.32
2023-12-26T05:41:47.588Z,60.45
2023-12-26T05:44:15.983Z,83.80
2023-12-26T05:46:47.000Z,89.90
2023-12-26T05:49:15.562Z,75.88
2023-12-26T05:51:44.616Z,74.45
2023-12-26T05:54:12.841Z,70.07
2023-12-26T05:56:41.746Z,60.55
2023-12-26T06:01:38.573Z,46.85
2023-12-26T06:04:07.167Z,97.00
2023-12-26T06:06:35.244Z,55.53
2023-12-26T06:09:03.617Z,55.78
2023-12-26T06:11:32.279Z,58.75
2023-12-26T06:14:00.229Z,66.18
2023-12-26T06:16:28.212Z,93.95
2023-12-26T06:18:56.558Z,59.97
2023-12-26T06:21:24.782Z,66.80
2023-12-26T06:23:54.352Z,42.03
2023-12-26T06:26:22.994Z,50.10
2023-12-26T06:28:51.071Z,66.82
2023-12-26T06:31:20.404Z,76.28
2023-12-26T06:33:49.049Z,90.28
2023-12-26T06:36:18.617Z,116.68
2023-12-26T06:38:46.897Z,91.55
2023-12-26T06:41:15.514Z,108.28
2023-12-26T06:43:43.626Z,97.90
2023-12-26T06:46:11.687Z,90.32
2023-12-26T06:48:42.278Z,131.43
2023-12-26T06:51:11.076Z,152.70
2023-12-26T06:53:39.124Z,129.60
2023-12-26T06:56:07.389Z,139.57
2023-12-26T06:58:35.702Z,111.68
2023-12-26T07:01:04.419Z,102.93
2023-12-26T07:03:32.652Z,85.75
2023-12-26T07:06:00.997Z,89.45
2023-12-26T07:08:29.028Z,99.03
2023-12-26T07:10:57.154Z,84.07
2023-12-26T07:13:25.110Z,65.93
2023-12-26T07:15:53.595Z,72.32
2023-12-26T07:18:22.649Z,76.22
2023-12-26T07:23:19.633Z,70.97
2023-12-26T07:25:47.811Z,67.18
2023-12-26T07:28:18.752Z,65.18
2023-12-26T07:30:47.603Z,69.28
2023-12-26T07:33:16.714Z,57.58
2023-12-26T07:38:13.657Z,49.45
2023-12-26T07:40:42.253Z,47.53
2023-12-26T07:43:11.770Z,51.00
2023-12-26T07:45:39.793Z,46.58
2023-12-26T07:48:08.046Z,75.80
2023-12-26T07:50:36.695Z,58.97
2023-12-26T07:53:05.991Z,44.95
2023-12-26T07:55:34.510Z,51.75
2023-12-26T07:58:03.102Z,44.30
2023-12-26T08:00:31.675Z,53.28
2023-12-26T08:03:00.945Z,68.30
2023-12-26T08:05:30.191Z,38.20
2023-12-26T08:07:58.847Z,31.52
2023-12-26T08:10:27.794Z,36.03
2023-12-26T08:12:56.562Z,26.60
2023-12-26T08:15:25.235Z,28.25
2023-12-26T08:17:54.130Z,27.48
2023-12-26T08:20:23.538Z,33.05
2023-12-26T08:22:52.243Z,45.55
2023-12-26T08:25:20.881Z,52.90
2023-12-26T08:27:49.265Z,32.33
2023-12-26T08:30:18.818Z,30.73
2023-12-26T08:32:47.788Z,113.97
2023-12-26T08:35:16.556Z,48.70
2023-12-26T08:37:45.273Z,40.90
2023-12-26T08:40:13.924Z,39.78
2023-12-26T08:42:42.427Z,29.85
2023-12-26T08:45:11.352Z,21.35
2023-12-26T08:47:39.998Z,18.27
2023-12-26T08:50:08.936Z,29.02
2023-12-26T08:52:37.173Z,18.33
2023-12-26T08:55:06.051Z,19.58
2023-12-26T08:57:34.223Z,24.25
2023-12-26T09:00:02.792Z,17.83
2023-12-26T09:02:31.453Z,10.80
2023-12-26T09:05:00.920Z,18.35
2023-12-26T09:07:31.090Z,24.65
2023-12-26T09:09:59.802Z,18.48
2023-12-26T09:12:28.385Z,37.88
2023-12-26T09:14:56.980Z,33.20
2023-12-26T09:17:25.522Z,16.10
2023-12-26T09:19:54.052Z,11.85
2023-12-26T09:22:22.165Z,15.68
2023-12-26T09:24:50.439Z,17.02
2023-12-26T09:27:18.473Z,33.00
2023-12-26T09:29:46.501Z,19.05
2023-12-26T09:32:14.509Z,23.00
2023-12-26T09:34:42.624Z,34.83
2023-12-26T09:37:10.784Z,63.03
2023-12-26T09:39:38.755Z,38.78
2023-12-26T09:42:10.749Z,14.55
2023-12-26T09:44:39.311Z,19.70
2023-12-26T09:47:08.136Z,14.73
2023-12-26T09:49:36.697Z,28.77
2023-12-26T09:52:10.464Z,14.73
2023-12-26T09:54:46.852Z,10.57
2023-12-26T09:57:17.298Z,11.05
2023-12-26T09:59:49.290Z,9.27
2023-12-26T10:02:18.133Z,24.60
2023-12-26T10:04:47.197Z,15.95
2023-12-26T10:07:16.511Z,9.27
2023-12-26T10:09:45.025Z,25.15
2023-12-26T10:12:13.766Z,20.40
2023-12-26T10:14:42.602Z,12.00
2023-12-26T10:17:13.296Z,35.92
2023-12-26T10:19:41.895Z,20.65
2023-12-26T10:22:11.330Z,12.23
2023-12-26T10:24:41.261Z,9.73
2023-12-26T10:27:10.142Z,12.23
2023-12-26T10:29:38.856Z,11.40
2023-12-26T10:32:07.987Z,12.73
2023-12-26T10:34:36.963Z,16.35
2023-12-26T10:37:07.176Z,22.05
2023-12-26T10:39:36.276Z,12.77
2023-12-26T10:42:05.663Z,11.35
2023-12-26T10:45:00.088Z,8.23
2023-12-26T10:47:32.646Z,7.97
2023-12-26T10:50:03.777Z,9.02
2023-12-26T10:52:35.463Z,7.90
2023-12-26T10:55:08.026Z,7.20
2023-12-26T10:57:38.365Z,8.32
2023-12-26T11:00:50.654Z,8.00
2023-12-26T11:04:15.373Z,21.48
2023-12-26T11:07:58.338Z,7.75
2023-12-26T11:11:41.210Z,22.00
2023-12-26T11:15:23.827Z,20.58
2023-12-26T11:19:06.799Z,34.00
2023-12-26T11:22:49.991Z,29.80
2023-12-26T11:26:33.189Z,13.15
2023-12-26T11:30:16.364Z,50.05
2023-12-26T11:33:59.607Z,19.48
2023-12-26T11:37:42.753Z,98.70
2023-12-26T11:41:25.615Z,11.27
2023-12-26T11:45:08.708Z,8.88
2023-12-26T11:48:53.989Z,8.23
2023-12-26T11:52:37.468Z,8.85
2023-12-26T11:56:20.545Z,15.63
2023-12-26T12:00:03.554Z,8.88
2023-12-26T12:03:46.663Z,8.60
2023-12-26T12:07:29.461Z,10.40
2023-12-26T12:11:12.297Z,35.38
2023-12-26T12:14:55.743Z,78.97
2023-12-26T12:18:38.352Z,15.23
2023-12-26T12:22:21.084Z,9.45
2023-12-26T12:26:04.097Z,9.90
2023-12-26T12:29:46.453Z,12.23
2023-12-26T12:33:30.133Z,11.40
2023-12-26T12:37:12.945Z,11.50
2023-12-26T12:40:56.089Z,11.77
2023-12-26T12:44:39.698Z,14.48
2023-12-26T12:48:30.148Z,42.97
2023-12-26T12:52:20.101Z,73.55
2023-12-26T12:56:03.238Z,31.20
2023-12-26T12:59:53.141Z,13.60
2023-12-26T13:03:36.333Z,64.97
2023-12-26T13:07:26.127Z,79.90
2023-12-26T13:11:16.184Z,87.82
2023-12-26T13:15:05.829Z,237.18
2023-12-26T13:18:48.754Z,43.90
2023-12-26T13:22:38.997Z,19.00
2023-12-26T13:26:24.407Z,57.17
2023-12-26T13:30:14.080Z,89.93
2023-12-26T13:34:03.298Z,125.00
2023-12-26T13:37:53.693Z,80.57
2023-12-26T13:41:44.011Z,154.35
2023-12-26T13:45:34.027Z,136.18
2023-12-26T13:49:23.319Z,106.13
2023-12-26T13:52:14.338Z,127.00
2023-12-26T13:55:22.894Z,162.63
2023-12-26T13:57:51.740Z,178.27
2023-12-26T14:00:57.381Z,133.02
2023-12-26T14:03:26.192Z,141.32
2023-12-26T14:08:42.148Z,116.50
2023-12-26T14:13:58.118Z,78.35
2023-12-26T14:17:04.293Z,116.82
2023-12-26T14:19:34.179Z,108.35
2023-12-26T14:22:40.332Z,138.13
2023-12-26T14:25:09.070Z,162.40
2023-12-26T14:28:15.007Z,179.75
2023-12-26T14:30:44.851Z,188.82
2023-12-26T14:33:50.817Z,190.57
2023-12-26T14:36:56.982Z,156.52
2023-12-26T14:39:25.782Z,187.82
2023-12-26T14:42:32.161Z,157.23
2023-12-26T14:45:01.117Z,134.77
2023-12-26T14:50:17.001Z,119.82
2023-12-26T14:53:22.731Z,125.55
2023-12-26T14:55:51.667Z,167.38
2023-12-26T14:58:57.383Z,133.88
2023-12-26T15:01:27.878Z,161.25
2023-12-26T15:03:56.655Z,151.20
2023-12-26T15:06:25.267Z,122.30
2023-12-26T15:08:54.046Z,108.80
2023-12-26T15:11:22.813Z,104.15
2023-12-26T15:14:00.948Z,97.93
2023-12-26T15:16:40.002Z,136.18
2023-12-26T15:21:44.320Z,187.77
2023-12-26T15:24:14.239Z,135.90
2023-12-26T15:26:44.194Z,122.95
2023-12-26T15:29:13.031Z,124.07
2023-12-26T15:31:41.899Z,161.77
2023-12-26T15:36:39.456Z,183.27
2023-12-26T15:39:08.551Z,161.55
2023-12-26T15:41:37.926Z,114.68
2023-12-26T15:44:06.996Z,169.95
2023-12-26T15:46:35.692Z,174.52
2023-12-26T15:49:04.481Z,160.57
2023-12-26T15:51:33.463Z,165.68
2023-12-26T15:54:02.332Z,212.18
2023-12-26T15:56:31.189Z,174.95
2023-12-26T15:58:59.702Z,161.35
2023-12-26T16:01:28.649Z,188.93
2023-12-26T16:03:57.956Z,196.63
2023-12-26T16:06:29.480Z,177.60
2023-12-26T16:08:58.408Z,99.22
2023-12-26T16:11:27.445Z,159.77
2023-12-26T16:13:56.258Z,166.07
2023-12-26T16:16:24.928Z,142.45
2023-12-26T16:18:53.726Z,138.77
2023-12-26T16:21:23.883Z,79.93
2023-12-26T16:23:52.731Z,58.63
2023-12-26T16:26:23.217Z,181.25
2023-12-26T16:28:54.192Z,147.05
2023-12-26T16:31:23.488Z,209.60
2023-12-26T16:33:53.758Z,192.88
2023-12-26T16:36:22.713Z,99.55
2023-12-26T16:38:51.198Z,93.50
2023-12-26T16:41:19.844Z,72.65
2023-12-26T16:43:48.280Z,60.80
2023-12-26T16:46:17.298Z,143.10
2023-12-26T16:48:46.263Z,173.13
2023-12-26T16:51:15.177Z,153.05
2023-12-26T16:53:44.327Z,85.70
2023-12-26T16:56:14.147Z,52.85
2023-12-26T16:58:42.951Z,44.72
2023-12-26T17:01:11.542Z,70.78
2023-12-26T17:03:42.449Z,71.32
2023-12-26T17:06:12.141Z,52.38
2023-12-26T17:08:40.769Z,72.25
2023-12-26T17:11:11.737Z,71.30
2023-12-26T17:13:40.399Z,61.15
2023-12-26T17:16:17.542Z,58.42
2023-12-26T17:18:46.557Z,43.45
2023-12-26T17:21:15.462Z,104.88
2023-12-26T17:23:44.410Z,96.70
2023-12-26T17:28:45.980Z,85.93
2023-12-26T17:31:14.792Z,77.15
2023-12-26T17:33:43.630Z,85.63
2023-12-26T17:38:40.738Z,95.35
2023-12-26T17:41:09.818Z,87.40
2023-12-26T17:43:38.586Z,109.78
2023-12-26T17:46:07.476Z,138.15
2023-12-26T17:48:36.398Z,138.35
2023-12-26T17:53:34.342Z,72.65
2023-12-26T17:56:04.065Z,92.70
2023-12-26T17:58:33.666Z,177.90
2023-12-26T18:01:02.786Z,188.95
2023-12-26T18:03:31.492Z,188.43
2023-12-26T18:06:00.263Z,185.68
2023-12-26T18:08:30.320Z,178.40
2023-12-26T18:10:58.865Z,117.97
2023-12-26T18:13:27.500Z,87.82
2023-12-26T18:15:56.186Z,115.80
2023-12-26T18:18:26.225Z,113.25
2023-12-26T18:20:55.510Z,146.07
2023-12-26T18:23:24.161Z,70.50
2023-12-26T18:25:53.578Z,86.47
2023-12-26T18:28:23.202Z,77.78
2023-12-26T18:30:52.453Z,135.40
2023-12-26T18:35:50.559Z,94.40
2023-12-26T18:38:19.161Z,97.15
2023-12-26T18:40:48.199Z,75.97
2023-12-26T18:43:17.352Z,98.93
2023-12-26T18:45:46.257Z,97.00
2023-12-26T18:48:15.436Z,91.57
2023-12-26T18:50:44.355Z,89.82
2023-12-26T18:53:13.668Z,76.40
2023-12-26T18:55:43.359Z,68.03
2023-12-26T18:58:12.505Z,89.97
2023-12-26T19:00:42.204Z,93.93
2023-12-26T19:03:12.625Z,94.97
2023-12-26T19:05:41.348Z,159.35
2023-12-26T19:08:10.159Z,116.35
2023-12-26T19:10:39.001Z,100.40
2023-12-26T19:13:07.701Z,74.57
2023-12-26T19:15:40.534Z,86.50
2023-12-26T19:18:11.955Z,123.68
2023-12-26T19:20:40.685Z,104.13
2023-12-26T19:23:09.601Z,102.15
2023-12-26T19:25:42.883Z,48.67
2023-12-26T19:28:12.516Z,31.17
2023-12-26T19:30:41.857Z,140.25
2023-12-26T19:33:10.689Z,174.00
2023-12-26T19:35:39.660Z,110.32
2023-12-26T19:38:10.252Z,69.85
2023-12-26T19:40:39.019Z,105.95
2023-12-26T19:43:07.819Z,115.00
2023-12-26T19:45:36.513Z,119.88
2023-12-26T19:48:05.924Z,125.03
2023-12-26T19:50:35.244Z,136.82
2023-12-26T19:53:04.602Z,159.32
2023-12-26T19:55:33.456Z,156.50
2023-12-26T19:58:02.181Z,127.60
2023-12-26T20:00:31.597Z,183.65
2023-12-26T20:03:05.407Z,143.90
2023-12-26T20:05:42.237Z,153.63
2023-12-26T20:08:11.103Z,161.07
2023-12-26T20:10:40.646Z,164.00
2023-12-26T20:13:09.418Z,216.27
2023-12-26T20:15:38.184Z,220.15
2023-12-26T20:18:07.007Z,245.48
2023-12-26T20:20:35.894Z,254.48
2023-12-26T20:23:04.734Z,234.85
2023-12-26T20:25:33.510Z,198.15
2023-12-26T20:28:07.885Z,278.33
2023-12-26T20:30:37.020Z,226.55
2023-12-26T20:35:36.060Z,242.40
2023-12-26T20:38:04.553Z,278.35
2023-12-26T20:40:33.732Z,243.65
2023-12-26T20:43:02.266Z,242.63
2023-12-26T20:45:31.154Z,241.48
2023-12-26T20:48:00.051Z,218.88
2023-12-26T20:52:57.303Z,112.32
2023-12-26T20:55:27.462Z,211.10
2023-12-26T20:57:57.684Z,198.85
2023-12-26T21:00:30.086Z,201.15
2023-12-26T21:02:59.051Z,193.10
2023-12-26T21:05:27.642Z,170.15
2023-12-26T21:07:56.617Z,183.18
2023-12-26T21:10:25.347Z,142.10
2023-12-26T21:12:54.052Z,98.38
2023-12-26T21:15:22.562Z,126.32
2023-12-26T21:17:51.206Z,71.47
2023-12-26T21:20:19.934Z,260.08
2023-12-26T21:22:49.429Z,212.68
2023-12-26T21:25:18.024Z,164.05
2023-12-26T21:27:47.172Z,190.38
2023-12-26T21:30:15.835Z,180.25
2023-12-26T21:32:46.698Z,171.00
2023-12-26T21:35:15.511Z,168.30
2023-12-26T21:37:44.290Z,190.82
2023-12-26T21:40:13.401Z,178.13
2023-12-26T21:42:42.198Z,178.77
2023-12-26T21:45:11.936Z,173.93
2023-12-26T21:47:41.672Z,152.77
2023-12-26T21:50:10.441Z,127.22
2023-12-26T21:52:39.197Z,136.82
2023-12-26T21:55:08.216Z,164.43
2023-12-26T21:57:36.815Z,144.80
2023-12-26T22:00:06.671Z,142.88
2023-12-26T22:02:35.479Z,141.30
2023-12-26T22:05:04.408Z,121.53
2023-12-26T22:07:32.988Z,139.23
2023-12-26T22:10:01.658Z,135.60
2023-12-26T22:12:30.319Z,158.50
2023-12-26T22:15:08.999Z,147.57
2023-12-26T22:17:44.944Z,148.30
2023-12-26T22:20:13.514Z,154.73
2023-12-26T22:22:42.367Z,157.43
2023-12-26T22:25:10.761Z,156.70
2023-12-26T22:27:39.283Z,177.55
2023-12-26T22:30:08.578Z,174.77
2023-12-26T22:32:36.889Z,171.30
2023-12-26T22:35:05.414Z,185.40
2023-12-26T22:37:33.654Z,170.48
2023-12-26T22:40:02.196Z,159.55
2023-12-26T22:42:30.588Z,172.25
2023-12-26T22:44:59.220Z,151.43
2023-12-26T22:47:27.394Z,173.00
2023-12-26T22:49:55.541Z,143.75
2023-12-26T22:52:23.668Z,123.70
2023-12-26T22:54:51.679Z,96.00
2023-12-26T22:57:20.213Z,108.07
2023-12-26T22:59:48.303Z,115.53
2023-12-26T23:02:16.463Z,117.18
2023-12-26T23:04:44.458Z,106.07
2023-12-26T23:07:12.582Z,109.90
2023-12-26T23:09:40.527Z,104.18
2023-12-26T23:12:08.476Z,87.10
2023-12-26T23:14:36.637Z,95.30
2023-12-26T23:17:05.050Z,102.80
2023-12-26T23:19:33.156Z,108.95
2023-12-26T23:22:01.192Z,105.78
2023-12-26T23:24:29.264Z,104.85
2023-12-26T23:26:57.234Z,111.55
2023-12-26T23:29:26.076Z,104.78
2023-12-26T23:31:54.215Z,95.32
2023-12-26T23:34:30.192Z,109.82
2023-12-26T23:37:07.212Z,94.43
2023-12-26T23:39:35.285Z,105.13
2023-12-26T23:42:05.583Z,97.65
2023-12-26T23:44:33.709Z,107.30
2023-12-26T23:47:01.753Z,101.07
2023-12-26T23:49:30.007Z,88.90
2023-12-26T23:51:58.132Z,84.03
2023-12-26T23:54:26.161Z,95.30
2023-12-26T23:56:54.274Z,84.93
2023-12-26T23:59:22.307Z,85.60
